Rutherford, California
Current Conditions -  °F | °C
As of 4:35 AM on Thursday 29 Jan 2015 (Local Time) from KO69 Reporting Station
Broken Clouds Broken Clouds  
Wind Chill: 41°   Ceiling: 300
Heat Index: 41°   Visibility: 1.7mi
Dew Point: 41°   Wind: 0mph
Humidity: 100%   Direction: NA
Pressure: 30.16"   Gusts: NA
Location:  38.46°N, 122.42°W
Report Text: KO69 291235Z AUTO 00000KT 1 3/4SM BKN003 05/05 A3016 RMK AO1
Loading
Personal Weather Stations






























Interactive Weather Map New forecast layout! Learn more

10-Day Weather Forecast

Advertisements
Track Severe Weather on mobile